createdAt,value
2023-04-19T00:07:51.237Z,100207.06
2023-04-19T00:18:00.238Z,100209.84
2023-04-19T00:28:05.051Z,100196.38
2023-04-19T00:38:07.468Z,100188.38
2023-04-19T00:48:09.725Z,100182.91
2023-04-19T00:58:14.087Z,100177.03
2023-04-19T01:08:15.986Z,100171.28
2023-04-19T01:18:19.391Z,100160.06
2023-04-19T01:28:23.510Z,100154.16
2023-04-19T01:38:30.854Z,100141.41
2023-04-19T01:48:36.602Z,100135.47
2023-04-19T01:58:38.406Z,100135.38
2023-04-19T02:08:40.868Z,100130.13
2023-04-19T02:18:48.477Z,100129.25
2023-04-19T02:28:53.265Z,100117.22
2023-04-19T02:38:56.005Z,100100.88
2023-04-19T02:49:01.345Z,100095.75
2023-04-19T02:59:04.815Z,100092.97
2023-04-19T03:09:06.560Z,100079.19
2023-04-19T03:19:08.345Z,100067.41
2023-04-19T03:29:14.625Z,100057.19
2023-04-19T03:39:17.316Z,100059.13
2023-04-19T03:49:19.159Z,100049.00
2023-04-19T03:59:21.890Z,100056.06
2023-04-19T04:09:25.625Z,100056.13
2023-04-19T04:19:27.490Z,100050.16
2023-04-19T04:29:32.493Z,100051.69
2023-04-19T04:39:39.696Z,100045.50
2023-04-19T04:49:41.668Z,100048.03
2023-04-19T04:59:43.935Z,100041.91
2023-04-19T05:09:45.698Z,100044.44
2023-04-19T05:19:47.453Z,100050.16
2023-04-19T05:29:59.653Z,100039.09
2023-04-19T05:40:01.609Z,100038.41
2023-04-19T05:50:04.538Z,100038.69
2023-04-19T06:00:08.981Z,100039.53
2023-04-19T06:10:10.896Z,100038.13
2023-04-19T06:20:14.923Z,100031.03
2023-04-19T06:30:21.340Z,100026.63
2023-04-19T06:40:24.092Z,100014.91
2023-04-19T06:50:27.620Z,100015.84
2023-04-19T07:00:29.335Z,100011.63
2023-04-19T07:10:31.266Z,100005.81
2023-04-19T07:20:33.154Z,99999.00
2023-04-19T07:30:36.613Z,99982.44
2023-04-19T07:40:38.327Z,99986.41
2023-04-19T07:50:40.419Z,99978.41
2023-04-19T08:00:42.102Z,99978.22
2023-04-19T08:10:44.368Z,99980.53
2023-04-19T08:20:47.288Z,99980.66
2023-04-19T08:30:50.404Z,99979.28
2023-04-19T08:40:53.837Z,99959.31
2023-04-19T09:01:11.305Z,99948.78
2023-04-19T09:11:20.250Z,99937.34
2023-04-19T09:21:29.848Z,99936.97
2023-04-19T09:31:47.877Z,99925.97
2023-04-19T09:41:54.955Z,99929.34
2023-04-19T09:51:58.096Z,99927.72
2023-04-19T10:02:01.973Z,99924.75
2023-04-19T10:12:19.117Z,99914.63
2023-04-19T10:22:28.646Z,99904.41
2023-04-19T10:32:38.270Z,99899.53
2023-04-19T10:43:11.536Z,99898.63
2023-04-19T10:53:51.824Z,99893.34
2023-04-19T11:03:57.950Z,99893.81
2023-04-19T11:14:04.629Z,99892.78
2023-04-19T11:24:11.881Z,99892.28
2023-04-19T11:34:15.076Z,99886.88
2023-04-19T11:44:21.787Z,99881.34
2023-04-19T11:54:27.147Z,99868.75
2023-04-19T12:04:32.316Z,99876.81
2023-04-19T12:14:35.724Z,99871.66
2023-04-19T12:24:39.787Z,99859.88
2023-04-19T12:34:41.946Z,99859.13
2023-04-19T12:44:46.937Z,99862.94
2023-04-19T12:54:48.668Z,99857.06
2023-04-19T13:04:52.857Z,99854.91
2023-04-19T13:14:54.890Z,99855.34
2023-04-19T13:24:57.597Z,99854.53
2023-04-19T13:35:01.247Z,99857.84
2023-04-19T13:45:03.354Z,99848.53
2023-04-19T13:55:07.813Z,99845.13
2023-04-19T14:05:10.905Z,99841.56
2023-04-19T14:15:13.606Z,99845.19
2023-04-19T14:25:20.645Z,99840.66
2023-04-19T14:35:22.857Z,99845.06
2023-04-19T14:45:27.796Z,99849.97
2023-04-19T14:55:30.963Z,99853.16
2023-04-19T15:05:36.602Z,99858.13
2023-04-19T15:15:39.342Z,99867.91
2023-04-19T15:25:49.864Z,99870.16
2023-04-19T15:35:54.615Z,99866.47
2023-04-19T15:45:56.823Z,99884.81
2023-04-19T15:55:58.523Z,99909.19
2023-04-19T16:06:00.182Z,99906.69
2023-04-19T16:16:02.005Z,99912.19
2023-04-19T16:26:04.345Z,99917.81
2023-04-19T16:36:06.536Z,99922.13
2023-04-19T16:46:11.348Z,99913.81
2023-04-19T16:56:14.280Z,99926.00
2023-04-19T17:06:23.305Z,99934.47
2023-04-19T17:16:26.101Z,99938.31
2023-04-19T17:26:34.481Z,99957.22
2023-04-19T17:36:43.124Z,99964.75
2023-04-19T17:46:45.930Z,99975.16
2023-04-19T17:56:49.843Z,99991.34
2023-04-19T18:07:04.868Z,99999.25
2023-04-19T18:17:08.660Z,100014.59
2023-04-19T18:27:15.510Z,100022.78
2023-04-19T18:37:19.273Z,100033.59
2023-04-19T18:47:26.756Z,100045.84
2023-04-19T18:57:33.173Z,100050.59
2023-04-19T19:07:43.289Z,100056.94
2023-04-19T19:17:49.880Z,100063.97
2023-04-19T19:28:07.021Z,100065.81
2023-04-19T19:38:13.984Z,100072.06
2023-04-19T19:48:17.835Z,100080.94
2023-04-19T20:08:44.364Z,100078.78
2023-04-19T20:18:49.748Z,100084.97
2023-04-19T20:28:53.823Z,100093.75
2023-04-19T20:38:57.666Z,100101.53
2023-04-19T20:49:00.104Z,100101.75
2023-04-19T20:59:02.077Z,100102.59
2023-04-19T21:09:06.138Z,100109.63
2023-04-19T21:19:07.810Z,100117.50
2023-04-19T21:29:09.492Z,100111.41
2023-04-19T21:39:11.079Z,100114.94
2023-04-19T21:49:12.913Z,100121.81
2023-04-19T21:59:15.535Z,100120.97
2023-04-19T22:09:20.352Z,100120.97
2023-04-19T22:19:26.887Z,100139.91
2023-04-19T22:29:28.702Z,100147.66
2023-04-19T22:39:30.593Z,100140.78
2023-04-19T22:49:35.251Z,100134.78
2023-04-19T22:59:36.895Z,100129.59
2023-04-19T23:09:39.464Z,100137.31
2023-04-19T23:19:42.135Z,100145.91
2023-04-19T23:29:44.131Z,100152.75
2023-04-19T23:39:45.857Z,100156.16
2023-04-19T23:49:47.775Z,100151.00
2023-04-19T23:59:50.720Z,100151.00
